Main page
METAR-TAF:

METAR-TAF

Airports :

Madrid–Torrejón Airport

Madrid-Torrejón, Spain

latitude: 40-29N, longitude: 003-27W, elevation: 607 m

Current weather observation

The report was made 55 minutes ago, at 15:00 UTC
Wind 1 kt from the North/Northwest
Temperature 15°C
Humidity 33%
Pressure 1017 hPa
Visibility 10 km or more
Few clouds at a height of 4000 ft

METAR: LETO 281500Z 33001KT 9999 FEW040 15/M01 Q1017 NOSIG

Time: 16:55 (15:55 UTC)

Forecast

The report was made 4 hours and 55 minutes ago, at 11:00 UTC
Forecast valid from 28 at 12 UTC to 29 at 12 UTC
Wind 5 kt from variable directions
Visibility 10 km or more
no clouds below 1500 m and no cumulonimbus

TAF: LETO 281100Z 2812/2912 VRB05KT CAVOK TX16/2815Z TN00/2906Z

Weather observations and forecasts of more than 4000 airports (METAR and TAF reports).

The available stations are represented by yellow and red dots on the map.

Hover mouse over dot to see the name of the station.

Then click to see weather observations and forecasts.

To change the map : click on the green buttons with a black cross to zoom in, on the green button with a dash to zoom out, or on the green arrows for adjacent maps.


METAR-TAF: